Time;durP1;ratioP1;P1;durP2;ratioP2;P2;SDS_P1;SDS_P2;PMS_P1;PMS_P2;Temp;Humidity;BMP_temperature;BMP_pressure;BME280_temperature;BME280_humidity;BME280_pressure;Samples;Min_cycle;Max_cycle;Signal;HPM_P1;HPM_P2
2024/02/26 00:00:34;;;;;;;0.20;0.20;;;;;;;11.13;78.03;100816.13;4931743;29;20039;-83
2024/02/26 00:03:00;;;;;;;0.20;0.20;;;;;;;11.05;78.36;100797.53;4931975;29;20042;-83
2024/02/26 00:05:26;;;;;;;0.20;0.20;;;;;;;11.13;78.35;100810.13;4932080;29;20122;-83
2024/02/26 00:07:51;;;;;;;0.20;0.20;;;;;;;11.10;78.43;100803.31;4931650;29;20494;-84
2024/02/26 00:10:17;;;;;;;0.20;0.20;;;;;;;11.20;78.03;100812.31;4931853;29;20463;-83
2024/02/26 00:12:42;;;;;;;0.20;0.20;;;;;;;11.13;78.40;100805.78;4916482;29;20114;-83
2024/02/26 00:15:08;;;;;;;0.20;0.20;;;;;;;11.03;77.99;100794.19;4947320;29;20558;-83
2024/02/26 00:17:34;;;;;;;0.20;0.20;;;;;;;11.02;78.00;100800.28;4931901;29;20027;-83
2024/02/26 00:20:00;;;;;;;0.20;0.20;;;;;;;11.06;77.79;100804.38;4931482;29;20034;-83
2024/02/26 00:22:26;;;;;;;0.20;0.20;;;;;;;10.96;77.99;100797.97;4931734;29;20039;-84
2024/02/26 00:24:51;;;;;;;0.20;0.20;;;;;;;10.97;78.02;100797.06;4947753;29;20540;-83
2024/02/26 00:27:17;;;;;;;0.10;0.10;;;;;;;10.82;77.77;100774.50;4947724;29;20030;-83
2024/02/26 00:29:43;;;;;;;0.20;0.20;;;;;;;10.83;77.95;100789.13;4932941;29;20036;-83
2024/02/26 00:32:08;;;;;;;0.20;0.20;;;;;;;10.80;78.21;100799.59;4931767;29;20038;-83
2024/02/26 00:34:34;;;;;;;0.20;0.20;;;;;;;10.72;78.13;100788.78;4931829;29;20027;-83
2024/02/26 00:36:59;;;;;;;0.20;0.20;;;;;;;10.79;78.56;100791.00;4931653;29;20066;-83
2024/02/26 00:39:25;;;;;;;0.20;0.20;;;;;;;10.87;78.09;100793.22;4931544;29;20031;-83
2024/02/26 00:41:51;;;;;;;0.20;0.20;;;;;;;10.79;78.38;100797.94;4932148;29;20040;-83
2024/02/26 00:44:17;;;;;;;0.10;0.10;;;;;;;10.83;78.79;100797.72;4935002;29;20032;-83
2024/02/26 00:46:43;;;;;;;0.20;0.20;;;;;;;10.87;78.70;100793.22;4935300;29;21355;-83
2024/02/26 00:49:08;;;;;;;0.20;0.20;;;;;;;10.84;78.74;100789.03;4935317;29;20122;-83
2024/02/26 00:51:34;;;;;;;0.20;0.20;;;;;;;10.86;78.44;100786.38;4950903;29;20088;-83
2024/02/26 00:53:59;;;;;;;0.20;0.20;;;;;;;10.76;78.14;100774.78;4935292;29;20040;-83
2024/02/26 00:56:25;;;;;;;0.20;0.20;;;;;;;10.71;78.18;100771.56;4934812;29;20055;-83
2024/02/26 00:58:51;;;;;;;0.20;0.20;;;;;;;10.68;78.03;100780.31;4934647;29;20027;-84
2024/02/26 01:01:17;;;;;;;0.20;0.20;;;;;;;10.65;78.61;100779.63;4951126;29;20032;-83
2024/02/26 01:03:42;;;;;;;0.20;0.20;;;;;;;10.66;78.20;100778.72;4934669;29;20028;-83
2024/02/26 01:06:08;;;;;;;0.15;0.15;;;;;;;10.71;78.48;100789.69;4934805;29;20043;-83
2024/02/26 01:08:35;;;;;;;0.20;0.20;;;;;;;10.67;77.97;100789.00;4934881;29;20086;-83
2024/02/26 01:11:01;;;;;;;0.20;0.20;;;;;;;10.66;78.10;100797.66;4934554;29;20023;-83
2024/02/26 01:13:26;;;;;;;0.20;0.20;;;;;;;10.59;78.10;100796.25;4918719;29;20027;-83
2024/02/26 01:15:52;;;;;;;0.20;0.20;;;;;;;10.53;78.02;100794.81;4934358;29;20020;-83
2024/02/26 01:18:18;;;;;;;0.20;0.20;;;;;;;10.28;78.45;100758.03;4950232;29;20032;-83
2024/02/26 01:20:43;;;;;;;0.20;0.20;;;;;;;10.48;77.92;100795.94;4950806;29;20027;-83
2024/02/26 01:23:09;;;;;;;0.20;0.20;;;;;;;10.49;77.92;100787.25;4950555;29;20032;-84
2024/02/26 01:25:34;;;;;;;0.20;0.20;;;;;;;10.53;77.64;100792.22;4950401;29;20032;-83
2024/02/26 01:28:00;;;;;;;0.20;0.20;;;;;;;10.47;77.89;100778.72;4933940;29;20042;-83
2024/02/26 01:30:25;;;;;;;0.20;0.20;;;;;;;10.47;77.97;100781.31;4950325;29;20027;-83
2024/02/26 01:32:51;;;;;;;0.20;0.20;;;;;;;10.42;77.59;100768.63;4934304;29;20038;-83
2024/02/26 01:35:16;;;;;;;0.13;0.13;;;;;;;10.34;77.17;100771.53;4935535;29;20032;-83
2024/02/26 01:37:42;;;;;;;0.20;0.20;;;;;;;10.35;77.48;100780.13;4918143;29;20051;-83
2024/02/26 01:40:09;;;;;;;0.20;0.20;;;;;;;10.30;77.58;100777.75;4934211;29;20062;-83
2024/02/26 01:42:35;;;;;;;0.20;0.20;;;;;;;10.24;77.47;100753.94;4934028;29;20028;-84
2024/02/26 01:45:01;;;;;;;0.20;0.20;;;;;;;10.19;77.85;100769.59;4934278;29;20028;-83
2024/02/26 01:47:27;;;;;;;0.20;0.20;;;;;;;10.29;77.67;100775.22;4933985;29;20106;-83
2024/02/26 01:49:52;;;;;;;0.20;0.20;;;;;;;10.29;77.76;100777.81;4918230;29;20028;-83
2024/02/26 01:52:18;;;;;;;0.20;0.20;;;;;;;10.03;77.81;100741.03;4934221;29;20024;-83
2024/02/26 01:54:44;;;;;;;0.20;0.20;;;;;;;10.19;77.77;100773.94;4917704;29;20034;-84
2024/02/26 01:57:10;;;;;;;0.20;0.20;;;;;;;10.23;77.70;100778.09;4933417;29;20043;-83
2024/02/26 01:59:35;;;;;;;0.20;0.20;;;;;;;10.07;78.06;100755.47;4933991;29;20028;-83
2024/02/26 02:02:02;;;;;;;0.20;0.20;;;;;;;10.24;77.67;100784.97;4949717;29;20031;-83
2024/02/26 02:04:27;;;;;;;0.20;0.20;;;;;;;9.98;78.12;100748.13;4933685;29;20494;-83
2024/02/26 02:06:53;;;;;;;0.20;0.20;;;;;;;10.15;77.34;100788.75;4933673;29;20027;-83
2024/02/26 02:09:19;;;;;;;0.20;0.20;;;;;;;10.11;77.78;100782.03;4933714;29;20035;-83
2024/02/26 02:11:44;;;;;;;0.20;0.20;;;;;;;10.08;78.14;100787.34;4917607;29;20410;-83
2024/02/26 02:14:10;;;;;;;0.20;0.20;;;;;;;10.04;78.27;100784.06;4933536;29;20058;-83
2024/02/26 02:16:35;;;;;;;0.20;0.20;;;;;;;9.78;78.74;100750.75;4933477;29;20032;-83
2024/02/26 02:19:01;;;;;;;0.20;0.20;;;;;;;9.92;78.25;100761.31;4933249;29;20046;-83
2024/02/26 02:21:26;;;;;;;0.20;0.20;;;;;;;9.99;78.37;100773.06;4933905;29;20177;-83
2024/02/26 02:23:52;;;;;;;0.20;0.20;;;;;;;10.06;78.24;100778.81;4933446;29;20490;-83
2024/02/26 02:26:18;;;;;;;0.20;0.20;;;;;;;10.05;78.13;100790.91;4917413;29;20039;-83
2024/02/26 02:28:43;;;;;;;0.20;0.20;;;;;;;9.93;78.16;100778.53;4917661;29;20035;-83
2024/02/26 02:31:09;;;;;;;0.20;0.20;;;;;;;9.91;77.86;100780.31;4917576;29;20031;-83
2024/02/26 02:33:34;;;;;;;0.20;0.20;;;;;;;9.89;77.59;100789.06;4933350;29;20079;-83
2024/02/26 02:36:00;;;;;;;0.20;0.20;;;;;;;9.87;77.83;100783.97;4933184;29;20111;-83
2024/02/26 02:38:26;;;;;;;0.20;0.20;;;;;;;9.88;78.48;100790.78;4932940;29;20506;-83
2024/02/26 02:40:52;;;;;;;0.20;0.20;;;;;;;9.83;78.42;100782.38;4933156;29;20160;-83
2024/02/26 02:43:17;;;;;;;0.20;0.20;;;;;;;9.80;78.43;100792.88;4933156;29;20038;-83
2024/02/26 02:45:43;;;;;;;0.20;0.20;;;;;;;9.70;78.47;100768.34;4933141;29;20032;-83
2024/02/26 02:48:08;;;;;;;0.20;0.20;;;;;;;9.67;78.64;100771.06;4932971;29;20510;-83
2024/02/26 02:50:34;;;;;;;0.20;0.20;;;;;;;9.82;78.24;100783.31;4933085;29;20027;-83
2024/02/26 02:52:59;;;;;;;0.20;0.20;;;;;;;9.73;78.47;100781.97;4932743;29;20040;-83
2024/02/26 02:55:25;;;;;;;0.10;0.10;;;;;;;9.63;78.57;100769.50;4932448;29;20031;-82
2024/02/26 02:57:50;;;;;;;0.20;0.20;;;;;;;9.68;78.32;100791.66;4948524;29;20036;-84
2024/02/26 03:00:16;;;;;;;0.20;0.20;;;;;;;9.60;78.43;100792.88;4932518;29;20110;-83
2024/02/26 03:02:42;;;;;;;0.10;0.10;;;;;;;9.60;78.28;100796.31;4932794;29;20039;-83
2024/02/26 03:05:08;;;;;;;0.20;0.20;;;;;;;9.54;78.21;100803.44;4932252;29;20032;-83
2024/02/26 03:07:34;;;;;;;0.20;0.20;;;;;;;9.55;78.49;100789.66;4948007;29;20024;-83
2024/02/26 03:09:59;;;;;;;0.20;0.20;;;;;;;9.46;77.59;100786.56;4932596;29;20039;-83
2024/02/26 03:12:25;;;;;;;0.20;0.20;;;;;;;9.57;78.61;100805.94;4948888;29;20031;-83
2024/02/26 03:14:51;;;;;;;0.20;0.20;;;;;;;9.45;78.23;100779.72;4932312;29;20027;-83
2024/02/26 03:17:16;;;;;;;0.20;0.20;;;;;;;9.41;78.91;100791.06;4948531;29;20062;-82
2024/02/26 03:19:46;;;;;;;0.20;0.20;;;;;;;9.43;78.83;100804.75;4932319;29;20114;-83
2024/02/26 03:22:12;;;;;;;0.20;0.20;;;;;;;9.46;78.70;100791.72;4932155;29;20031;-83
2024/02/26 03:24:37;;;;;;;0.20;0.20;;;;;;;9.57;78.29;100805.94;4932285;29;20031;-83
2024/02/26 03:27:04;;;;;;;0.20;0.20;;;;;;;9.24;78.60;100759.09;4948288;29;20027;-83
2024/02/26 03:29:30;;;;;;;0.20;0.20;;;;;;;9.61;78.16;100792.81;4948217;29;20031;-83
2024/02/26 03:31:56;;;;;;;0.20;0.20;;;;;;;9.56;78.29;100804.25;4932347;29;20521;-82
2024/02/26 03:34:21;;;;;;;0.20;0.20;;;;;;;9.54;78.25;100795.72;4932156;29;20083;-83
2024/02/26 03:36:47;;;;;;;0.20;0.20;;;;;;;9.47;78.59;100795.16;4931732;29;20095;-83
2024/02/26 03:39:13;;;;;;;0.20;0.20;;;;;;;9.51;78.79;100795.84;4916506;29;20118;-84
2024/02/26 03:41:38;;;;;;;0.20;0.20;;;;;;;9.49;78.36;100789.00;4916569;29;20023;-83
2024/02/26 03:44:04;;;;;;;0.20;0.20;;;;;;;9.39;78.57;100782.53;4932103;29;20055;-83
2024/02/26 03:46:30;;;;;;;0.20;0.20;;;;;;;9.36;78.69;100771.50;4932297;29;20588;-83
2024/02/26 03:48:55;;;;;;;0.20;0.20;;;;;;;9.40;78.42;100794.53;4931945;29;20076;-83
2024/02/26 03:51:21;;;;;;;0.20;0.20;;;;;;;9.31;78.49;100783.75;4932204;29;20399;-83
2024/02/26 03:53:46;;;;;;;0.20;0.20;;;;;;;9.34;78.58;100797.41;4932076;29;20042;-82
2024/02/26 03:56:13;;;;;;;0.20;0.20;;;;;;;9.32;78.32;100786.28;4932015;29;20028;-83
2024/02/26 03:58:38;;;;;;;0.20;0.20;;;;;;;9.34;78.64;100805.16;4916685;29;20032;-82
2024/02/26 04:01:04;;;;;;;0.20;0.20;;;;;;;9.11;79.22;100776.81;4932142;29;20465;-82
2024/02/26 04:03:30;;;;;;;0.20;0.20;;;;;;;9.30;79.66;100801.00;4948007;29;20122;-82
2024/02/26 04:05:55;;;;;;;0.20;0.20;;;;;;;9.34;79.85;100810.31;4947341;29;20032;-83
2024/02/26 04:08:21;;;;;;;0.20;0.20;;;;;;;9.39;79.55;100800.63;4931808;29;20513;-83
2024/02/26 04:10:46;;;;;;;0.20;0.20;;;;;;;9.41;79.05;100811.72;4947963;29;20506;-83
2024/02/26 04:13:12;;;;;;;0.20;0.20;;;;;;;9.35;79.21;100812.00;4931817;29;20498;-83
2024/02/26 04:15:37;;;;;;;0.20;0.20;;;;;;;9.15;79.32;100776.66;4932018;29;20082;-82
2024/02/26 04:18:03;;;;;;;0.20;0.20;;;;;;;9.35;79.53;100809.41;4950334;28;20115;-82
2024/02/26 04:20:28;;;;;;;0.20;0.20;;;;;;;9.29;79.54;100807.06;4935192;29;20083;-83
2024/02/26 04:22:54;;;;;;;0.20;0.20;;;;;;;9.30;79.50;100813.91;4935645;29;20040;-83
2024/02/26 04:25:19;;;;;;;0.20;0.20;;;;;;;9.28;79.43;100809.72;4932485;29;21401;-84
2024/02/26 04:27:45;;;;;;;0.20;0.20;;;;;;;9.15;79.55;100799.06;4935248;29;20031;-84
2024/02/26 04:30:11;;;;;;;0.20;0.20;;;;;;;9.17;79.07;100807.56;4935275;29;20035;-84
2024/02/26 04:32:36;;;;;;;0.20;0.20;;;;;;;9.19;79.41;100816.91;4935164;29;20131;-84
2024/02/26 04:35:02;;;;;;;0.20;0.20;;;;;;;9.19;79.22;100814.34;4934565;29;20034;-84
2024/02/26 04:37:31;;;;;;;0.20;0.20;;;;;;;9.16;79.83;100821.38;4934829;29;20585;-85
2024/02/26 04:40:00;;;;;;;0.20;0.20;;;;;;;9.05;79.73;100798.56;4934952;29;20093;-84
2024/02/26 04:42:25;;;;;;;0.20;0.20;;;;;;;9.09;79.56;100825.94;4935272;29;20024;-84
2024/02/26 04:44:51;;;;;;;0.20;0.20;;;;;;;9.03;79.86;100817.56;4935077;29;20035;-86
2024/02/26 04:47:16;;;;;;;0.20;0.20;;;;;;;8.95;80.01;100809.28;4936206;29;20042;-85
2024/02/26 04:49:42;;;;;;;0.20;0.20;;;;;;;8.95;79.87;100810.16;4934524;29;20043;-86
2024/02/26 04:52:08;;;;;;;0.20;0.20;;;;;;;9.03;79.79;100830.47;4950475;29;20040;-85
2024/02/26 04:54:33;;;;;;;0.20;0.20;;;;;;;9.08;79.27;100833.75;4918917;29;20067;-86
2024/02/26 04:56:59;;;;;;;0.20;0.20;;;;;;;9.14;79.37;100834.34;4934893;29;20032;-85
2024/02/26 04:59:24;;;;;;;0.20;0.20;;;;;;;9.08;79.46;100838.91;4934570;29;20055;-85
2024/02/26 05:01:52;;;;;;;0.20;0.20;;;;;;;9.09;79.40;100843.16;4934391;29;20043;-86
2024/02/26 05:04:18;;;;;;;0.13;0.13;;;;;;;9.08;78.87;100846.66;4934726;29;20040;-85
2024/02/26 05:06:43;;;;;;;0.20;0.20;;;;;;;8.93;78.97;100835.16;4934671;29;20164;-85
2024/02/26 05:09:09;;;;;;;0.20;0.20;;;;;;;8.95;79.29;100842.84;4934057;29;20560;-87
2024/02/26 05:11:35;;;;;;;0.20;0.20;;;;;;;8.93;78.92;100844.63;4925945;29;20519;-82
2024/02/26 05:14:00;;;;;;;0.20;0.20;;;;;;;8.82;79.08;100830.41;4948609;29;20032;-90
2024/02/26 05:16:27;;;;;;;0.20;0.20;;;;;;;9.00;78.81;100856.41;4950626;29;20179;-82
2024/02/26 05:18:53;;;;;;;0.20;0.20;;;;;;;8.89;79.06;100839.59;4931941;29;20163;-84
2024/02/26 05:21:18;;;;;;;0.20;0.20;;;;;;;8.96;78.72;100847.97;4932055;29;20062;-86
2024/02/26 05:23:45;;;;;;;0.20;0.20;;;;;;;8.89;79.20;100857.66;4933440;29;20063;-84
2024/02/26 05:26:10;;;;;;;0.20;0.20;;;;;;;8.78;79.03;100862.41;4934962;29;20027;-85
2024/02/26 05:28:38;;;;;;;0.20;0.20;;;;;;;8.76;79.12;100879.69;4932404;29;20512;-84
2024/02/26 05:31:04;;;;;;;0.20;0.20;;;;;;;8.75;79.29;100865.09;4933389;29;20031;-90
2024/02/26 05:33:30;;;;;;;0.20;0.20;;;;;;;8.84;79.31;100856.16;4916513;29;20059;-88
2024/02/26 05:35:55;;;;;;;0.20;0.20;;;;;;;8.85;79.40;100850.13;4917674;29;20032;-85
2024/02/26 05:38:21;;;;;;;0.20;0.20;;;;;;;8.89;78.95;100842.19;4917716;29;20122;-89
2024/02/26 05:40:47;;;;;;;0.20;0.20;;;;;;;8.85;78.97;100845.81;4949243;29;20405;-81
2024/02/26 05:43:15;;;;;;;0.20;0.20;;;;;;;8.85;78.76;100847.53;4931875;29;20122;-85
2024/02/26 05:45:41;;;;;;;0.20;0.20;;;;;;;8.79;79.05;100837.44;4918460;29;20469;-84
2024/02/26 05:48:06;;;;;;;0.20;0.20;;;;;;;8.88;79.43;100863.72;4932448;29;20502;-88
2024/02/26 05:50:32;;;;;;;0.20;0.20;;;;;;;8.79;79.56;100858.09;4930560;29;20024;-86
2024/02/26 05:52:57;;;;;;;0.20;0.20;;;;;;;8.87;80.58;100866.38;4933876;29;20028;-84
2024/02/26 05:55:23;;;;;;;0.20;0.20;;;;;;;9.03;80.67;100882.94;4917782;29;20506;-88
2024/02/26 05:57:49;;;;;;;0.20;0.20;;;;;;;9.05;80.74;100880.31;4930277;29;20043;-88
2024/02/26 06:00:15;;;;;;;0.20;0.20;;;;;;;8.93;80.32;100839.47;4912867;29;20028;-83
2024/02/26 06:02:41;;;;;;;0.20;0.20;;;;;;;8.91;80.43;100837.81;4928262;29;20028;-86
2024/02/26 06:05:08;;;;;;;0.20;0.20;;;;;;;9.09;80.12;100871.53;4917329;29;20036;-87
2024/02/26 06:07:34;;;;;;;0.13;0.13;;;;;;;9.17;80.01;100879.84;4931699;29;20024;-89
2024/02/26 06:10:00;;;;;;;0.20;0.20;;;;;;;9.29;80.12;100888.84;4932030;29;20036;-88
2024/02/26 06:12:28;;;;;;;0.20;0.20;;;;;;;9.33;80.19;100887.81;4932695;29;20087;-85
2024/02/26 06:14:54;;;;;;;0.20;0.20;;;;;;;9.39;80.62;100901.31;4948080;29;20020;-89
2024/02/26 06:17:19;;;;;;;0.20;0.20;;;;;;;9.65;81.59;100908.03;4931574;29;20036;-85
2024/02/26 06:19:45;;;;;;;0.20;0.20;;;;;;;9.83;80.07;100901.25;4927793;29;20075;-93
2024/02/26 06:22:10;;;;;;;0.20;0.20;;;;;;;9.85;79.02;100899.47;4914466;29;20043;-91
2024/02/26 06:24:36;;;;;;;0.20;0.20;;;;;;;9.95;79.73;100905.94;4929287;29;20027;-85
2024/02/26 06:27:02;;;;;;;0.20;0.20;;;;;;;9.91;78.66;100903.53;4926600;29;20040;-87
2024/02/26 06:29:28;;;;;;;0.20;0.20;;;;;;;9.93;78.78;100910.34;4932472;29;20063;-88
2024/02/26 06:31:55;;;;;;;0.20;0.20;;;;;;;9.85;78.86;100883.97;4933370;29;20047;-91
2024/02/26 06:34:20;;;;;;;0.20;0.20;;;;;;;10.02;79.09;100909.09;4922815;29;20114;-89
2024/02/26 06:36:47;;;;;;;0.20;0.20;;;;;;;9.99;79.14;100897.13;4935018;29;20039;-91
2024/02/26 06:39:12;;;;;;;0.20;0.20;;;;;;;10.09;78.98;100901.91;4932153;29;20090;-84
2024/02/26 06:41:39;;;;;;;0.20;0.20;;;;;;;10.16;78.63;100898.19;4934754;29;20217;-89
2024/02/26 06:44:05;;;;;;;0.20;0.20;;;;;;;10.13;79.01;100893.97;4931031;29;20564;-91
2024/02/26 06:46:30;;;;;;;0.20;0.20;;;;;;;10.14;79.05;100910.34;4929062;29;20090;-87
2024/02/26 06:48:56;;;;;;;0.20;0.20;;;;;;;10.20;79.23;100918.66;4930205;29;20036;-87
2024/02/26 06:51:22;;;;;;;0.20;0.20;;;;;;;10.18;79.16;100901.53;4928583;29;20086;-87
2024/02/26 06:53:48;;;;;;;0.20;0.20;;;;;;;10.31;78.97;100902.69;4932385;29;20118;-85
2024/02/26 06:56:14;;;;;;;0.20;0.20;;;;;;;10.43;78.75;100912.53;4935896;29;20461;-88
2024/02/26 06:58:39;;;;;;;0.20;0.20;;;;;;;10.50;78.52;100913.94;4948958;29;20036;-89
2024/02/26 07:01:09;;;;;;;0.20;0.20;;;;;;;10.48;78.14;100899.38;4934764;29;20083;-93
2024/02/26 07:03:34;;;;;;;0.20;0.20;;;;;;;10.56;78.22;100913.66;4933915;29;20115;-88
2024/02/26 07:06:01;;;;;;;0.20;0.20;;;;;;;10.67;78.11;100920.94;4938732;29;20128;-89
2024/02/26 07:08:27;;;;;;;0.20;0.20;;;;;;;10.67;77.74;100912.34;4930845;29;20138;-89
2024/02/26 07:10:52;;;;;;;0.20;0.20;;;;;;;10.73;77.76;100914.69;4933583;29;20458;-91
2024/02/26 07:13:18;;;;;;;0.20;0.20;;;;;;;10.81;77.10;100923.75;4914816;29;20027;-88
2024/02/26 07:15:43;;;;;;;0.20;0.20;;;;;;;10.77;77.51;100916.19;4917496;29;20462;-88
2024/02/26 07:18:10;;;;;;;0.20;0.20;;;;;;;10.82;77.54;100929.78;4944222;29;20031;-87
2024/02/26 07:20:35;;;;;;;0.20;0.20;;;;;;;10.88;76.42;100935.50;4913777;29;20059;-88
2024/02/26 07:23:02;;;;;;;0.20;0.20;;;;;;;10.86;75.89;100936.50;4914392;29;20043;-87
2024/02/26 07:25:28;;;;;;;0.20;0.20;;;;;;;10.80;76.72;100945.38;4913289;29;20024;-92
2024/02/26 07:27:53;;;;;;;0.20;0.20;;;;;;;10.92;76.06;100951.75;4936443;29;20075;-94
2024/02/26 07:30:19;;;;;;;0.20;0.20;;;;;;;10.81;75.89;100939.28;4915555;29;20032;-86
2024/02/26 07:32:44;;;;;;;0.20;0.20;;;;;;;10.91;75.74;100950.06;4899423;28;20052;-90
2024/02/26 07:35:10;;;;;;;0.20;0.20;;;;;;;10.93;75.75;100952.59;4917729;29;20032;-86
2024/02/26 07:37:36;;;;;;;0.20;0.20;;;;;;;11.03;75.59;100953.88;4931413;29;20043;-86
2024/02/26 07:40:01;;;;;;;0.10;0.10;;;;;;;11.07;74.94;100952.81;4935767;29;20027;-89
2024/02/26 07:42:27;;;;;;;0.20;0.20;;;;;;;11.19;75.31;100955.66;4934189;28;20098;-90
2024/02/26 07:44:52;;;;;;;0.20;0.20;;;;;;;11.01;74.83;100932.34;4931523;29;20067;-85
2024/02/26 07:47:18;;;;;;;0.20;0.20;;;;;;;11.17;74.85;100960.06;4941539;29;20055;-91
2024/02/26 07:49:44;;;;;;;0.20;0.20;;;;;;;11.18;74.70;100953.97;4924830;29;20032;-89
2024/02/26 07:52:10;;;;;;;0.20;0.20;;;;;;;11.30;75.08;100954.31;4924045;29;20084;-91
2024/02/26 07:54:35;;;;;;;0.20;0.20;;;;;;;11.20;74.92;100946.13;4929843;29;20027;-87
2024/02/26 07:57:03;;;;;;;0.20;0.20;;;;;;;11.31;74.90;100946.50;4952143;28;20066;-84
2024/02/26 07:59:29;;;;;;;0.20;0.20;;;;;;;11.11;75.37;100937.06;4929752;29;20038;-86
2024/02/26 08:01:54;;;;;;;0.20;0.20;;;;;;;11.22;74.96;100944.34;4936842;29;20115;-89
2024/02/26 08:04:20;;;;;;;0.20;0.20;;;;;;;11.28;75.08;100948.38;4918915;29;20131;-87
2024/02/26 08:06:45;;;;;;;0.20;0.20;;;;;;;11.37;77.82;100943.59;4938028;29;20110;-90
2024/02/26 08:09:12;;;;;;;0.20;0.20;;;;;;;11.46;74.98;100938.00;4949540;29;20044;-91
2024/02/26 08:11:38;;;;;;;0.20;0.20;;;;;;;11.47;74.78;100925.88;4919841;29;20533;-90
2024/02/26 08:14:04;;;;;;;0.20;0.20;;;;;;;11.50;74.58;100930.91;4923891;29;20044;-88
2024/02/26 08:16:30;;;;;;;0.20;0.20;;;;;;;11.56;74.89;100932.38;4937293;29;20031;-93
2024/02/26 08:18:55;;;;;;;0.20;0.20;;;;;;;11.51;74.74;100926.59;4937175;29;20437;-85
2024/02/26 08:21:21;;;;;;;0.20;0.20;;;;;;;11.58;74.73;100930.53;4937133;29;20470;-88
2024/02/26 08:23:46;;;;;;;0.20;0.20;;;;;;;11.53;74.62;100912.63;4937859;29;20553;-83
2024/02/26 08:26:12;;;;;;;0.20;0.20;;;;;;;11.57;74.66;100934.88;4937638;29;20063;-89
2024/02/26 08:28:38;;;;;;;0.20;0.20;;;;;;;11.71;74.08;100947.19;4939124;29;20059;-90
2024/02/26 08:31:03;;;;;;;0.20;0.20;;;;;;;11.70;74.25;100950.66;4923021;29;20107;-93
2024/02/26 08:33:29;;;;;;;0.20;0.20;;;;;;;11.74;74.84;100942.69;4913409;29;20075;-91
2024/02/26 08:35:55;;;;;;;0.20;0.20;;;;;;;12.10;73.36;100967.78;4894380;29;20043;-93
2024/02/26 08:38:21;;;;;;;0.20;0.20;;;;;;;12.13;72.50;100953.81;4927902;29;20051;-93
2024/02/26 08:40:47;;;;;;;0.20;0.20;;;;;;;12.15;72.18;100947.63;4938006;29;20115;-88
2024/02/26 08:43:12;;;;;;;0.10;0.10;;;;;;;12.09;72.39;100960.03;4911404;29;20043;-90
2024/02/26 08:45:38;;;;;;;0.20;0.20;;;;;;;12.06;72.02;100959.28;4955995;29;20481;-89
2024/02/26 08:48:03;;;;;;;0.20;0.20;;;;;;;11.95;72.08;100903.69;4934952;29;20119;-89
2024/02/26 08:50:29;;;;;;;0.20;0.20;;;;;;;12.17;71.84;100931.97;4946427;28;20031;-88
2024/02/26 08:52:54;;;;;;;0.20;0.20;;;;;;;12.17;71.94;100940.59;4943316;29;20067;-90
2024/02/26 08:55:22;;;;;;;0.20;0.20;;;;;;;12.19;71.97;100938.78;4929729;29;20031;-91
2024/02/26 08:57:48;;;;;;;0.20;0.20;;;;;;;12.31;71.41;100921.75;4919679;29;20043;-90
2024/02/26 09:00:15;;;;;;;0.20;0.20;;;;;;;12.28;70.96;100904.56;4919036;29;20031;-86
2024/02/26 09:02:43;;;;;;;0.20;0.20;;;;;;;12.45;71.11;100908.03;4919519;29;20036;-89
2024/02/26 09:05:10;;;;;;;0.20;0.20;;;;;;;12.39;70.50;100908.34;4931657;29;20028;-90
2024/02/26 09:07:36;;;;;;;0.20;0.20;;;;;;;12.40;70.97;100915.25;4929647;29;20087;-84
2024/02/26 09:10:01;;;;;;;0.20;0.20;;;;;;;12.52;71.15;100920.63;4919703;29;20047;-87
2024/02/26 09:12:27;;;;;;;0.20;0.20;;;;;;;12.66;69.98;100919.88;4931729;29;20028;-91
2024/02/26 09:14:52;;;;;;;0.20;0.20;;;;;;;12.54;69.63;100910.16;4933842;29;20039;-89
2024/02/26 09:17:18;;;;;;;0.20;0.20;;;;;;;12.61;70.23;100922.75;4924367;29;20043;-88
2024/02/26 09:19:44;;;;;;;0.20;0.20;;;;;;;12.73;69.49;100938.59;4916985;29;20036;-92
2024/02/26 09:22:09;;;;;;;0.20;0.20;;;;;;;12.62;69.30;100926.19;4919066;29;20041;-89
2024/02/26 09:24:35;;;;;;;0.20;0.20;;;;;;;12.70;69.79;100939.59;4923519;29;20036;-88
2024/02/26 09:27:01;;;;;;;0.20;0.20;;;;;;;12.77;70.19;100943.53;4917909;29;20410;-88
2024/02/26 09:29:27;;;;;;;0.20;0.20;;;;;;;12.86;69.93;100953.41;4933054;29;20059;-87
2024/02/26 09:31:53;;;;;;;0.20;0.20;;;;;;;12.87;68.83;100954.25;4935500;29;20032;-88
2024/02/26 09:34:18;;;;;;;0.20;0.20;;;;;;;13.04;69.49;100955.97;4913917;28;20089;-93
2024/02/26 09:36:44;;;;;;;0.20;0.20;;;;;;;13.01;67.85;100950.94;4917978;29;20032;-88
2024/02/26 09:39:11;;;;;;;0.20;0.20;;;;;;;12.95;68.18;100946.91;4930417;29;20039;-88
2024/02/26 09:41:37;;;;;;;0.20;0.20;;;;;;;12.90;69.19;100949.75;4930203;29;20032;-86
2024/02/26 09:44:02;;;;;;;0.20;0.20;;;;;;;12.79;68.43;100944.31;4917542;29;20031;-90
2024/02/26 09:46:28;;;;;;;0.20;0.20;;;;;;;12.85;68.59;100958.69;4932520;29;20032;-90
2024/02/26 09:48:55;;;;;;;0.20;0.20;;;;;;;12.77;68.82;100950.47;4943359;28;20038;-93
2024/02/26 09:51:23;;;;;;;0.20;0.20;;;;;;;12.79;69.08;100959.88;4901228;29;20122;-84
2024/02/26 09:53:49;;;;;;;0.20;0.20;;;;;;;12.71;69.19;100946.47;4914379;29;20036;-85
2024/02/26 09:56:14;;;;;;;0.20;0.20;;;;;;;12.74;69.60;100945.47;4914310;29;20040;-90
2024/02/26 09:58:40;;;;;;;0.20;0.20;;;;;;;12.69;69.84;100944.88;4931036;29;20058;-88
2024/02/26 10:01:10;;;;;;;0.20;0.20;;;;;;;12.66;70.35;100953.63;4933492;29;20518;-91
2024/02/26 10:03:39;;;;;;;0.20;0.20;;;;;;;12.49;70.32;100940.72;4916540;29;20032;-92
2024/02/26 10:06:06;;;;;;;0.10;0.10;;;;;;;12.57;70.44;100948.91;4930773;29;20119;-84
2024/02/26 10:08:32;;;;;;;0.20;0.20;;;;;;;12.58;70.74;100942.81;4899681;29;20118;-86
2024/02/26 10:10:57;;;;;;;0.20;0.20;;;;;;;12.38;70.96;100917.06;4942856;29;20123;-84
2024/02/26 10:13:23;;;;;;;0.20;0.20;;;;;;;12.49;70.62;100935.53;4931676;29;20046;-85
2024/02/26 10:15:49;;;;;;;0.20;0.20;;;;;;;12.68;70.37;100936.22;4933271;29;20058;-88
2024/02/26 10:18:15;;;;;;;0.20;0.20;;;;;;;12.80;69.99;100927.81;4917644;29;20258;-92
2024/02/26 10:20:40;;;;;;;0.20;0.20;;;;;;;12.86;69.80;100932.66;4932133;29;20418;-87
2024/02/26 10:23:06;;;;;;;0.20;0.20;;;;;;;12.78;69.94;100923.59;4914016;29;20091;-88
2024/02/26 10:25:32;;;;;;;0.20;0.20;;;;;;;12.83;70.19;100930.22;4917110;29;20042;-91
2024/02/26 10:28:02;;;;;;;0.20;0.20;;;;;;;12.79;69.63;100907.97;4935906;29;20046;-90
2024/02/26 10:30:27;;;;;;;0.20;0.20;;;;;;;12.90;69.88;100916.00;4925609;29;20035;-89
2024/02/26 10:32:53;;;;;;;0.20;0.20;;;;;;;12.78;69.67;100901.09;4915863;28;20122;-89
2024/02/26 10:35:20;;;;;;;0.20;0.20;;;;;;;12.88;70.52;100897.09;4928841;29;20041;-86
2024/02/26 10:37:46;;;;;;;0.20;0.20;;;;;;;13.00;68.99;100894.72;4933823;29;20048;-85
2024/02/26 10:40:12;;;;;;;0.20;0.20;;;;;;;12.91;69.28;100888.28;4924086;29;20040;-93
2024/02/26 10:42:38;;;;;;;0.20;0.20;;;;;;;12.92;69.52;100885.59;4917029;29;20485;-90
2024/02/26 10:45:05;;;;;;;0.20;0.20;;;;;;;13.05;69.37;100895.31;4923795;29;20035;-93
2024/02/26 10:47:33;;;;;;;0.20;0.20;;;;;;;13.09;69.22;100876.06;4933260;29;20490;-88
2024/02/26 10:49:58;;;;;;;0.20;0.20;;;;;;;13.21;69.14;100880.59;4932319;29;20024;-93
2024/02/26 10:52:25;;;;;;;0.20;0.20;;;;;;;13.27;68.89;100898.41;4932837;29;20065;-89
2024/02/26 10:54:51;;;;;;;0.20;0.20;;;;;;;13.29;68.40;100885.38;4933178;29;20026;-90
2024/02/26 10:57:16;;;;;;;0.20;0.20;;;;;;;13.34;68.28;100883.31;4932494;29;20075;-91
2024/02/26 10:59:42;;;;;;;0.20;0.20;;;;;;;13.30;67.70;100876.63;4930079;29;20060;-88
2024/02/26 11:02:08;;;;;;;0.20;0.20;;;;;;;13.29;68.43;100886.19;4928822;29;20158;-90
2024/02/26 11:04:34;;;;;;;0.20;0.20;;;;;;;13.37;68.49;100881.41;4931964;29;20569;-91
2024/02/26 11:07:01;;;;;;;0.20;0.20;;;;;;;13.31;68.52;100878.31;4930845;29;20082;-85
2024/02/26 11:09:26;;;;;;;0.20;0.20;;;;;;;13.39;68.12;100897.75;4930384;29;20418;-89
2024/02/26 11:11:54;;;;;;;0.20;0.20;;;;;;;13.49;67.74;100895.47;4916250;29;20035;-94
2024/02/26 11:14:20;;;;;;;0.20;0.20;;;;;;;13.42;67.37;100891.53;4932537;29;20122;-87
2024/02/26 11:16:46;;;;;;;0.20;0.20;;;;;;;13.51;67.54;100900.56;4925664;29;20487;-90
2024/02/26 11:19:13;;;;;;;0.20;0.20;;;;;;;13.54;67.11;100896.03;4936956;29;20032;-90
2024/02/26 11:21:41;;;;;;;0.20;0.20;;;;;;;13.48;67.35;100896.41;4927791;29;20019;-89